createdAt,value
2023-11-18T00:00:14.696Z,87.71
2023-11-18T00:02:43.983Z,86.69
2023-11-18T00:05:12.253Z,86.95
2023-11-18T00:07:40.291Z,87.44
2023-11-18T00:10:09.678Z,87.37
2023-11-18T00:12:37.975Z,87.56
2023-11-18T00:15:09.927Z,87.76
2023-11-18T00:17:37.710Z,87.72
2023-11-18T00:20:10.425Z,87.72
2023-11-18T00:22:38.286Z,86.85
2023-11-18T00:25:08.986Z,87.24
2023-11-18T00:27:37.826Z,87.95
2023-11-18T00:30:09.389Z,88.28
2023-11-18T00:32:37.696Z,88.45
2023-11-18T00:35:06.292Z,88.18
2023-11-18T00:37:34.208Z,89.28
2023-11-18T00:40:02.012Z,89.22
2023-11-18T00:42:29.857Z,89.71
2023-11-18T00:44:58.507Z,90.58
2023-11-18T00:47:27.781Z,90.28
2023-11-18T00:49:55.655Z,89.52
2023-11-18T00:52:23.579Z,89.27
2023-11-18T00:54:51.349Z,89.24
2023-11-18T00:57:19.091Z,88.48
2023-11-18T00:59:48.313Z,88.50
2023-11-18T01:02:16.328Z,88.08
2023-11-18T01:04:46.922Z,87.85
2023-11-18T01:07:14.780Z,87.78
2023-11-18T01:09:42.482Z,87.33
2023-11-18T01:12:10.983Z,86.54
2023-11-18T01:14:40.315Z,86.89
2023-11-18T01:17:09.039Z,87.13
2023-11-18T01:19:37.067Z,86.64
2023-11-18T01:22:07.236Z,87.43
2023-11-18T01:24:36.084Z,87.83
2023-11-18T01:27:03.946Z,87.55
2023-11-18T01:29:31.997Z,87.37
2023-11-18T01:32:00.007Z,87.22
2023-11-18T01:34:29.247Z,86.91
2023-11-18T01:36:57.942Z,87.34
2023-11-18T01:39:27.889Z,87.48
2023-11-18T01:42:02.260Z,87.14
2023-11-18T01:44:31.520Z,86.68
2023-11-18T01:47:00.200Z,86.75
2023-11-18T01:49:29.558Z,86.60
2023-11-18T01:51:57.757Z,86.79
2023-11-18T01:54:27.873Z,86.94
2023-11-18T01:56:56.196Z,87.73
2023-11-18T01:59:24.124Z,87.82
2023-11-18T02:01:54.637Z,87.03
2023-11-18T02:04:23.554Z,87.03
2023-11-18T02:06:51.946Z,86.09
2023-11-18T02:09:28.342Z,86.86
2023-11-18T02:12:05.490Z,87.71
2023-11-18T02:14:34.342Z,88.22
2023-11-18T02:17:05.363Z,88.62
2023-11-18T02:19:35.912Z,88.94
2023-11-18T02:22:04.349Z,87.86
2023-11-18T02:24:37.586Z,88.02
2023-11-18T02:27:08.014Z,88.50
2023-11-18T02:29:38.294Z,88.36
2023-11-18T02:32:16.725Z,87.94
2023-11-18T02:34:54.811Z,88.81
2023-11-18T02:37:23.554Z,88.17
2023-11-18T02:39:55.866Z,89.68
2023-11-18T02:42:26.219Z,90.05
2023-11-18T02:45:00.258Z,89.02
2023-11-18T02:47:29.129Z,88.25
2023-11-18T02:50:06.617Z,88.60
2023-11-18T02:52:35.172Z,88.74
2023-11-18T02:55:02.917Z,89.81
2023-11-18T02:57:32.009Z,89.91
2023-11-18T03:00:01.479Z,89.70
2023-11-18T03:02:31.885Z,89.84
2023-11-18T03:05:00.591Z,90.09
2023-11-18T03:07:29.147Z,90.72
2023-11-18T03:09:58.414Z,91.58
2023-11-18T03:12:28.985Z,92.18
2023-11-18T03:14:58.824Z,91.72
2023-11-18T03:17:26.754Z,91.08
2023-11-18T03:19:54.895Z,91.31
2023-11-18T03:22:24.145Z,91.66
2023-11-18T03:24:52.367Z,91.25
2023-11-18T03:27:20.452Z,91.40
2023-11-18T03:29:49.078Z,91.27
2023-11-18T03:32:19.113Z,90.96
2023-11-18T03:34:46.848Z,91.02
2023-11-18T03:37:15.042Z,91.03
2023-11-18T03:39:42.862Z,91.94
2023-11-18T03:42:10.608Z,91.88
2023-11-18T03:44:38.689Z,91.92
2023-11-18T03:47:08.067Z,92.22
2023-11-18T03:49:37.746Z,92.44
2023-11-18T03:52:06.395Z,91.31
2023-11-18T03:54:34.180Z,91.42
2023-11-18T03:57:01.935Z,91.64
2023-11-18T03:59:29.636Z,91.56
2023-11-18T04:01:57.464Z,91.41
2023-11-18T04:04:25.280Z,91.92
2023-11-18T04:06:54.683Z,92.19
2023-11-18T04:09:22.512Z,91.28
2023-11-18T04:11:50.283Z,91.65
2023-11-18T04:14:18.109Z,91.85
2023-11-18T04:16:47.212Z,92.54
2023-11-18T04:19:15.149Z,92.89
2023-11-18T04:21:42.892Z,93.28
2023-11-18T04:24:12.171Z,92.85
2023-11-18T04:26:39.930Z,92.78
2023-11-18T04:29:07.666Z,92.72
2023-11-18T04:31:37.418Z,92.30
2023-11-18T04:34:06.255Z,93.18
2023-11-18T04:36:33.948Z,92.32
2023-11-18T04:39:01.712Z,93.10
2023-11-18T04:41:32.637Z,93.31
2023-11-18T04:44:00.931Z,93.50
2023-11-18T04:46:28.720Z,93.30
2023-11-18T04:48:57.403Z,93.54
2023-11-18T04:51:25.474Z,93.66
2023-11-18T04:53:53.592Z,93.73
2023-11-18T04:56:21.422Z,93.98
2023-11-18T04:58:50.571Z,94.00
2023-11-18T05:01:19.260Z,94.55
2023-11-18T05:03:47.130Z,93.92
2023-11-18T05:06:14.885Z,93.96
2023-11-18T05:08:42.798Z,93.99
2023-11-18T05:11:11.789Z,93.27
2023-11-18T05:13:41.203Z,93.10
2023-11-18T05:16:12.234Z,93.67
2023-11-18T05:18:40.284Z,93.23
2023-11-18T05:21:08.733Z,94.17
2023-11-18T05:23:37.225Z,94.59
2023-11-18T05:26:06.700Z,95.10
2023-11-18T05:28:35.530Z,95.84
2023-11-18T05:31:04.139Z,95.82
2023-11-18T05:33:35.587Z,95.72
2023-11-18T05:36:06.161Z,95.86
2023-11-18T05:38:35.966Z,96.12
2023-11-18T05:41:04.964Z,96.28
2023-11-18T05:43:38.248Z,96.24
2023-11-18T05:46:21.742Z,96.18
2023-11-18T05:48:51.456Z,96.18
2023-11-18T05:51:22.232Z,95.30
2023-11-18T05:53:49.993Z,95.66
2023-11-18T05:56:18.808Z,95.39
2023-11-18T05:58:46.759Z,95.72
2023-11-18T06:01:15.618Z,95.85
2023-11-18T06:03:44.122Z,96.18
2023-11-18T06:06:15.167Z,96.17
2023-11-18T06:08:43.184Z,95.93
2023-11-18T06:11:15.195Z,96.40
2023-11-18T06:13:44.674Z,96.79
2023-11-18T06:16:16.363Z,96.51
2023-11-18T06:18:46.323Z,96.62
2023-11-18T06:21:16.319Z,96.76
2023-11-18T06:23:44.442Z,96.56
2023-11-18T06:26:12.486Z,96.75
2023-11-18T06:28:41.912Z,96.87
2023-11-18T06:31:10.922Z,96.76
2023-11-18T06:33:41.188Z,96.75
2023-11-18T06:36:09.795Z,96.34
2023-11-18T06:38:39.174Z,97.00
2023-11-18T06:41:09.691Z,96.29
2023-11-18T06:43:52.826Z,96.74
2023-11-18T06:46:23.176Z,96.88
2023-11-18T06:48:51.560Z,97.17
2023-11-18T06:51:19.371Z,98.04
2023-11-18T06:53:48.411Z,98.08
2023-11-18T06:56:17.084Z,97.84
2023-11-18T06:58:45.232Z,97.18
2023-11-18T07:01:15.812Z,98.12
2023-11-18T07:03:43.890Z,98.04
2023-11-18T07:06:12.189Z,98.71
2023-11-18T07:08:40.297Z,99.12
2023-11-18T07:11:09.417Z,99.31
2023-11-18T07:13:38.499Z,99.06
2023-11-18T07:16:07.997Z,99.81
2023-11-18T07:18:35.850Z,99.63
2023-11-18T07:21:05.790Z,99.82
2023-11-18T07:23:33.976Z,99.87
2023-11-18T07:26:02.341Z,99.71
2023-11-18T07:28:32.286Z,99.08
2023-11-18T07:31:00.896Z,99.48
2023-11-18T07:33:28.921Z,99.05
2023-11-18T07:35:56.921Z,98.50
2023-11-18T07:38:24.716Z,98.90
2023-11-18T07:40:57.744Z,99.46
2023-11-18T07:43:25.761Z,99.40
2023-11-18T07:45:55.126Z,99.29
2023-11-18T07:48:22.895Z,99.27
2023-11-18T07:50:50.647Z,99.71
2023-11-18T07:53:18.520Z,99.21
2023-11-18T07:55:46.476Z,99.73
2023-11-18T07:58:14.243Z,100.00
2023-11-18T08:00:43.626Z,99.35
2023-11-18T08:03:14.597Z,99.21
2023-11-18T08:05:44.911Z,99.42
2023-11-18T08:08:12.922Z,98.64
2023-11-18T08:10:43.374Z,98.77
2023-11-18T08:13:13.977Z,99.59
2023-11-18T08:15:43.099Z,98.65
2023-11-18T08:18:12.428Z,98.93
2023-11-18T08:20:40.816Z,98.59
2023-11-18T08:23:08.634Z,98.28
2023-11-18T08:25:37.075Z,98.78
2023-11-18T08:28:07.886Z,98.86
2023-11-18T08:30:35.985Z,98.64
2023-11-18T08:33:06.650Z,99.40
2023-11-18T08:35:36.134Z,99.22
2023-11-18T08:38:05.365Z,99.63
2023-11-18T08:40:33.192Z,99.44
2023-11-18T08:43:02.320Z,99.41
2023-11-18T08:45:31.389Z,100.00
2023-11-18T08:48:00.700Z,100.00
2023-11-18T08:50:28.954Z,100.00
2023-11-18T08:53:00.196Z,99.40
2023-11-18T08:55:42.008Z,100.00
2023-11-18T08:58:23.265Z,100.00
2023-11-18T09:00:54.968Z,100.00
2023-11-18T09:03:29.085Z,100.00
2023-11-18T09:06:04.803Z,100.00
2023-11-18T09:08:37.021Z,100.00
2023-11-18T09:11:07.219Z,100.00
2023-11-18T09:13:36.963Z,100.00
2023-11-18T09:16:09.552Z,100.00
2023-11-18T09:18:41.351Z,100.00
2023-11-18T09:21:15.809Z,100.00
2023-11-18T09:23:46.687Z,100.00
2023-11-18T09:26:15.710Z,100.00
2023-11-18T09:28:43.926Z,100.00
2023-11-18T09:31:12.544Z,100.00
2023-11-18T09:33:46.227Z,99.64
2023-11-18T09:36:14.218Z,100.00
2023-11-18T09:38:43.686Z,100.00
2023-11-18T09:41:14.691Z,100.00
2023-11-18T09:43:47.742Z,100.00
2023-11-18T09:46:17.005Z,100.00
2023-11-18T09:48:48.183Z,100.00
2023-11-18T09:51:22.098Z,100.00
2023-11-18T09:53:53.762Z,100.00
2023-11-18T09:56:38.821Z,100.00
2023-11-18T09:59:17.039Z,99.30
2023-11-18T10:01:47.680Z,98.65
2023-11-18T10:04:19.253Z,99.80
2023-11-18T10:06:49.376Z,99.06
2023-11-18T10:09:18.633Z,98.90
2023-11-18T10:11:49.864Z,99.60
2023-11-18T10:14:18.005Z,98.34
2023-11-18T10:16:48.598Z,99.07
2023-11-18T10:19:18.920Z,99.03
2023-11-18T10:21:50.150Z,99.69
2023-11-18T10:24:21.083Z,99.38
2023-11-18T10:26:58.678Z,99.11
2023-11-18T10:29:29.301Z,99.48
2023-11-18T10:32:09.059Z,99.43
2023-11-18T10:34:37.397Z,98.43
2023-11-18T10:37:07.735Z,99.00
2023-11-18T10:39:36.836Z,99.15
2023-11-18T10:42:06.775Z,98.91
2023-11-18T10:44:34.523Z,99.87
2023-11-18T10:47:02.782Z,99.61
2023-11-18T10:49:37.893Z,98.79
2023-11-18T10:52:09.672Z,99.42
2023-11-18T10:54:38.499Z,99.35
2023-11-18T10:57:10.168Z,99.96
2023-11-18T10:59:38.321Z,99.86
2023-11-18T11:02:22.817Z,100.00
2023-11-18T11:04:51.149Z,99.88
2023-11-18T11:07:21.402Z,100.00
2023-11-18T11:09:50.700Z,100.00
2023-11-18T11:12:21.387Z,99.82
2023-11-18T11:15:00.813Z,99.99
2023-11-18T11:17:32.150Z,98.90
2023-11-18T11:20:18.651Z,99.13
2023-11-18T11:23:00.094Z,99.44
2023-11-18T11:25:36.270Z,99.75
2023-11-18T11:28:14.941Z,100.00
2023-11-18T11:30:47.630Z,100.00
2023-11-18T11:33:28.897Z,100.00
2023-11-18T11:35:59.470Z,99.85
2023-11-18T11:38:30.046Z,99.89
2023-11-18T11:41:01.898Z,99.54
2023-11-18T11:43:32.031Z,99.88
2023-11-18T11:46:00.384Z,100.00
2023-11-18T11:48:29.402Z,100.00
2023-11-18T11:51:07.097Z,100.00
2023-11-18T11:53:40.318Z,100.00
2023-11-18T11:56:14.980Z,99.98
2023-11-18T11:58:45.716Z,99.62
2023-11-18T12:01:31.069Z,99.18
2023-11-18T12:03:59.973Z,99.37
2023-11-18T12:06:29.346Z,98.79
2023-11-18T12:08:58.857Z,98.89
2023-11-18T12:11:28.803Z,98.70
2023-11-18T12:14:14.199Z,98.72
2023-11-18T12:17:10.226Z,98.39
2023-11-18T12:19:46.205Z,98.15
2023-11-18T12:22:25.480Z,98.63
2023-11-18T12:25:34.684Z,97.59
2023-11-18T12:28:10.373Z,98.30
2023-11-18T12:30:53.103Z,97.64
2023-11-18T12:33:24.426Z,97.86
2023-11-18T12:36:22.720Z,98.06
2023-11-18T12:39:34.496Z,99.03
2023-11-18T12:42:08.976Z,99.20
2023-11-18T12:44:40.639Z,98.56
2023-11-18T12:47:19.524Z,98.89
2023-11-18T12:49:54.765Z,99.01
2023-11-18T12:52:24.590Z,98.79
2023-11-18T12:54:52.754Z,99.48
2023-11-18T12:57:23.884Z,99.57
2023-11-18T12:59:52.006Z,99.95
2023-11-18T13:02:22.182Z,99.88
2023-11-18T13:04:51.324Z,100.00
2023-11-18T13:07:20.044Z,99.42
2023-11-18T13:09:48.578Z,99.28
2023-11-18T13:12:18.405Z,99.74
2023-11-18T13:14:47.213Z,99.10
2023-11-18T13:17:17.259Z,99.51
2023-11-18T13:19:49.092Z,99.70
2023-11-18T13:22:20.140Z,99.97
2023-11-18T13:24:48.368Z,100.00
2023-11-18T13:27:18.253Z,100.00
2023-11-18T13:29:49.980Z,100.00
2023-11-18T13:32:18.249Z,100.00
2023-11-18T13:34:47.611Z,100.00
2023-11-18T13:37:18.168Z,100.00
2023-11-18T13:39:48.300Z,100.00
2023-11-18T13:42:24.041Z,100.00
2023-11-18T13:44:54.149Z,100.00
2023-11-18T13:47:23.990Z,100.00
2023-11-18T13:49:56.291Z,100.00
2023-11-18T13:52:24.295Z,100.00
2023-11-18T13:54:56.800Z,100.00
2023-11-18T13:57:25.349Z,100.00
2023-11-18T13:59:53.719Z,100.00
2023-11-18T14:02:22.484Z,100.00
2023-11-18T14:04:56.636Z,100.00
2023-11-18T14:07:25.492Z,100.00
2023-11-18T14:09:57.741Z,100.00
2023-11-18T14:12:28.752Z,100.00
2023-11-18T14:14:56.624Z,100.00
2023-11-18T14:17:24.461Z,100.00
2023-11-18T14:19:53.815Z,100.00
2023-11-18T14:22:21.626Z,100.00
2023-11-18T14:24:49.453Z,100.00
2023-11-18T14:27:17.990Z,100.00
2023-11-18T14:29:47.655Z,100.00
2023-11-18T14:32:15.515Z,100.00
2023-11-18T14:34:44.252Z,100.00
2023-11-18T14:37:13.418Z,100.00
2023-11-18T14:39:41.672Z,100.00
2023-11-18T14:42:10.658Z,100.00
2023-11-18T14:44:55.834Z,100.00
2023-11-18T14:47:23.739Z,100.00
2023-11-18T14:49:51.554Z,100.00
2023-11-18T14:52:20.685Z,100.00
2023-11-18T14:54:48.512Z,100.00
2023-11-18T14:57:17.093Z,100.00
2023-11-18T14:59:44.781Z,100.00
2023-11-18T15:02:12.635Z,100.00
2023-11-18T15:04:40.716Z,100.00
2023-11-18T15:07:08.472Z,100.00
2023-11-18T15:09:55.087Z,100.00
2023-11-18T15:12:22.823Z,100.00
2023-11-18T15:14:51.183Z,100.00
2023-11-18T15:17:19.001Z,100.00
2023-11-18T15:19:46.882Z,100.00
2023-11-18T15:22:14.658Z,100.00
2023-11-18T15:24:43.736Z,100.00
2023-11-18T15:27:12.557Z,100.00
2023-11-18T15:29:46.584Z,100.00
2023-11-18T15:32:14.601Z,100.00
2023-11-18T15:34:42.477Z,100.00
2023-11-18T15:37:10.499Z,100.00
2023-11-18T15:39:38.227Z,100.00
2023-11-18T15:42:07.924Z,100.00
2023-11-18T15:44:35.758Z,100.00
2023-11-18T15:47:04.520Z,100.00
2023-11-18T15:49:32.320Z,100.00
2023-11-18T15:52:00.058Z,100.00
2023-11-18T15:54:28.664Z,100.00
2023-11-18T15:56:59.462Z,100.00
2023-11-18T15:59:29.123Z,100.00
2023-11-18T16:01:56.982Z,100.00
2023-11-18T16:04:25.140Z,100.00
2023-11-18T16:06:52.944Z,100.00
2023-11-18T16:09:21.688Z,100.00
2023-11-18T16:11:50.217Z,100.00
2023-11-18T16:14:18.181Z,100.00
2023-11-18T16:16:47.317Z,100.00
2023-11-18T16:19:17.399Z,100.00
2023-11-18T16:21:47.255Z,100.00
2023-11-18T16:24:15.609Z,100.00
2023-11-18T16:26:45.121Z,100.00
2023-11-18T16:29:15.734Z,100.00
2023-11-18T16:31:44.084Z,100.00
2023-11-18T16:34:13.395Z,100.00
2023-11-18T16:36:41.188Z,100.00
2023-11-18T16:39:08.901Z,100.00
2023-11-18T16:41:43.629Z,100.00
2023-11-18T16:44:13.928Z,100.00
2023-11-18T16:46:41.886Z,100.00
2023-11-18T16:49:09.730Z,100.00
2023-11-18T16:51:39.579Z,100.00
2023-11-18T16:54:08.690Z,100.00
2023-11-18T16:56:36.459Z,100.00
2023-11-18T16:59:04.686Z,100.00
2023-11-18T17:01:32.453Z,100.00
2023-11-18T17:04:00.539Z,100.00
2023-11-18T17:06:28.383Z,100.00
2023-11-18T17:08:57.551Z,100.00
2023-11-18T17:11:26.252Z,100.00
2023-11-18T17:13:54.030Z,100.00
2023-11-18T17:16:26.516Z,100.00
2023-11-18T17:18:54.663Z,100.00
2023-11-18T17:21:22.505Z,100.00
2023-11-18T17:23:51.638Z,100.00
2023-11-18T17:26:20.731Z,100.00
2023-11-18T17:28:49.283Z,100.00
2023-11-18T17:31:16.998Z,100.00
2023-11-18T17:33:44.938Z,100.00
2023-11-18T17:36:12.732Z,100.00
2023-11-18T17:38:40.579Z,100.00
2023-11-18T17:41:08.752Z,100.00
2023-11-18T17:43:38.942Z,100.00
2023-11-18T17:46:09.078Z,100.00
2023-11-18T17:48:37.357Z,100.00
2023-11-18T17:51:05.450Z,100.00
2023-11-18T17:53:33.229Z,100.00
2023-11-18T17:56:01.119Z,100.00
2023-11-18T17:58:28.895Z,100.00
2023-11-18T18:00:59.111Z,100.00
2023-11-18T18:03:27.496Z,100.00
2023-11-18T18:05:55.625Z,100.00
2023-11-18T18:08:23.464Z,100.00
2023-11-18T18:10:51.231Z,100.00
2023-11-18T18:13:19.092Z,100.00
2023-11-18T18:15:48.434Z,100.00
2023-11-18T18:18:17.578Z,100.00
2023-11-18T18:20:49.279Z,100.00
2023-11-18T18:23:17.540Z,100.00
2023-11-18T18:25:45.386Z,100.00
2023-11-18T18:28:13.148Z,100.00
2023-11-18T18:30:41.271Z,100.00
2023-11-18T18:33:09.985Z,100.00
2023-11-18T18:35:40.765Z,100.00
2023-11-18T18:38:09.207Z,100.00
2023-11-18T18:40:37.009Z,100.00
2023-11-18T18:43:04.863Z,100.00
2023-11-18T18:45:33.028Z,100.00
2023-11-18T18:48:01.234Z,100.00
2023-11-18T18:50:35.385Z,100.00
2023-11-18T18:53:04.874Z,100.00
2023-11-18T18:55:32.877Z,100.00
2023-11-18T18:58:00.956Z,100.00
2023-11-18T19:00:28.804Z,100.00
2023-11-18T19:02:56.778Z,100.00
2023-11-18T19:05:24.872Z,100.00
2023-11-18T19:07:56.441Z,100.00
2023-11-18T19:10:26.145Z,100.00
2023-11-18T19:13:00.733Z,100.00
2023-11-18T19:15:28.627Z,100.00
2023-11-18T19:17:58.901Z,100.00
2023-11-18T19:20:27.076Z,100.00
2023-11-18T19:22:55.241Z,100.00
2023-11-18T19:25:23.156Z,100.00
2023-11-18T19:30:20.202Z,100.00
2023-11-18T19:32:47.958Z,100.00
2023-11-18T19:35:16.554Z,100.00
2023-11-18T19:37:45.130Z,100.00
2023-11-18T19:40:13.856Z,100.00
2023-11-18T19:42:41.809Z,100.00
2023-11-18T19:45:14.033Z,100.00
2023-11-18T19:47:42.125Z,100.00
2023-11-18T19:50:11.118Z,100.00
2023-11-18T19:52:38.893Z,100.00
2023-11-18T19:55:07.731Z,100.00
2023-11-18T19:57:36.758Z,100.00
2023-11-18T20:00:07.268Z,100.00
2023-11-18T20:02:42.990Z,100.00
2023-11-18T20:05:11.082Z,100.00
2023-11-18T20:07:39.787Z,100.00
2023-11-18T20:10:10.267Z,100.00
2023-11-18T20:12:40.090Z,100.00
2023-11-18T20:15:12.233Z,100.00
2023-11-18T20:17:41.609Z,100.00
2023-11-18T20:20:12.125Z,100.00
2023-11-18T20:22:40.012Z,100.00
2023-11-18T20:25:08.863Z,100.00
2023-11-18T20:27:37.417Z,100.00
2023-11-18T20:30:06.129Z,100.00
2023-11-18T20:32:34.384Z,100.00
2023-11-18T20:35:02.533Z,100.00
2023-11-18T20:37:32.457Z,100.00
2023-11-18T20:40:00.264Z,100.00
2023-11-18T20:42:28.001Z,100.00
2023-11-18T20:44:55.997Z,100.00
2023-11-18T20:47:24.319Z,100.00
2023-11-18T20:49:52.398Z,100.00
2023-11-18T20:52:20.143Z,100.00
2023-11-18T20:54:49.225Z,100.00
2023-11-18T20:57:16.966Z,100.00
2023-11-18T20:59:44.903Z,100.00
2023-11-18T21:02:13.963Z,100.00
2023-11-18T21:04:44.220Z,100.00
2023-11-18T21:07:12.069Z,100.00
2023-11-18T21:09:41.018Z,100.00
2023-11-18T21:12:18.064Z,100.00
2023-11-18T21:14:49.097Z,100.00
2023-11-18T21:17:17.243Z,100.00
2023-11-18T21:19:45.402Z,100.00
2023-11-18T21:22:14.309Z,100.00
2023-11-18T21:24:42.040Z,100.00
2023-11-18T21:27:11.127Z,100.00
2023-11-18T21:29:38.834Z,100.00
2023-11-18T21:32:07.259Z,100.00
2023-11-18T21:34:35.079Z,100.00
2023-11-18T21:37:02.877Z,100.00
2023-11-18T21:39:30.704Z,100.00
2023-11-18T21:41:58.507Z,100.00
2023-11-18T21:44:27.569Z,100.00
2023-11-18T21:46:55.413Z,100.00
2023-11-18T21:49:23.217Z,100.00
2023-11-18T21:51:51.224Z,100.00
2023-11-18T21:54:18.955Z,100.00
2023-11-18T21:56:46.987Z,100.00
2023-11-18T21:59:15.585Z,100.00
2023-11-18T22:01:44.800Z,100.00
2023-11-18T22:04:12.624Z,100.00
2023-11-18T22:06:40.393Z,100.00
2023-11-18T22:09:09.970Z,100.00
2023-11-18T22:11:38.375Z,100.00
2023-11-18T22:14:06.260Z,100.00
2023-11-18T22:16:34.714Z,100.00
2023-11-18T22:19:05.504Z,100.00
2023-11-18T22:21:33.818Z,100.00
2023-11-18T22:24:01.531Z,100.00
2023-11-18T22:26:30.809Z,100.00
2023-11-18T22:28:58.627Z,100.00
2023-11-18T22:31:27.009Z,100.00
2023-11-18T22:33:55.008Z,100.00
2023-11-18T22:36:24.133Z,100.00
2023-11-18T22:38:52.422Z,100.00
2023-11-18T22:41:20.273Z,100.00
2023-11-18T22:43:48.792Z,100.00
2023-11-18T22:46:16.893Z,100.00
2023-11-18T22:48:45.819Z,100.00
2023-11-18T22:51:13.660Z,100.00
2023-11-18T22:53:43.605Z,100.00
2023-11-18T22:56:11.876Z,100.00
2023-11-18T22:58:42.692Z,100.00
2023-11-18T23:01:11.863Z,100.00
2023-11-18T23:03:40.391Z,100.00
2023-11-18T23:06:10.745Z,100.00
2023-11-18T23:08:38.845Z,100.00
2023-11-18T23:11:08.139Z,100.00
2023-11-18T23:13:36.782Z,100.00
2023-11-18T23:16:04.912Z,100.00
2023-11-18T23:18:33.532Z,100.00
2023-11-18T23:21:01.391Z,100.00
2023-11-18T23:23:29.073Z,100.00
2023-11-18T23:25:56.791Z,100.00
2023-11-18T23:28:25.911Z,100.00
2023-11-18T23:30:57.401Z,100.00
2023-11-18T23:33:25.313Z,100.00
2023-11-18T23:35:53.687Z,100.00
2023-11-18T23:38:22.382Z,100.00
2023-11-18T23:40:50.537Z,100.00
2023-11-18T23:43:19.100Z,100.00
2023-11-18T23:45:48.539Z,100.00
2023-11-18T23:48:16.823Z,100.00
2023-11-18T23:50:44.781Z,100.00
2023-11-18T23:53:12.563Z,100.00
2023-11-18T23:55:40.357Z,100.00
2023-11-18T23:58:09.023Z,100.00
